createdAt,value
2023-03-19T00:27:07.939Z,34.20
2023-03-19T00:30:28.375Z,34.90
2023-03-19T00:34:12.818Z,36.30
2023-03-19T00:41:50.663Z,36.30
2023-03-19T01:07:47.368Z,45.40
2023-03-19T01:11:19.735Z,35.10
2023-03-19T01:15:08.160Z,42.40
2023-03-19T01:18:23.010Z,48.10
2023-03-19T01:39:30.053Z,49.00
2023-03-19T01:43:09.931Z,46.60
2023-03-19T01:46:45.650Z,48.60
2023-03-19T01:50:16.698Z,53.80
2023-03-19T01:53:46.911Z,51.90
2023-03-19T02:14:00.423Z,52.50
2023-03-19T02:17:24.273Z,50.60
2023-03-19T02:24:54.051Z,57.00
2023-03-19T02:45:09.530Z,48.10
2023-03-19T02:48:32.450Z,47.50
2023-03-19T02:52:07.036Z,48.10
2023-03-19T02:55:38.065Z,48.00
2023-03-19T03:02:28.525Z,46.60
2023-03-19T03:06:16.611Z,40.70
2023-03-19T03:38:46.664Z,58.10
2023-03-19T03:42:17.244Z,47.60
2023-03-19T03:45:51.210Z,53.80
2023-03-19T04:10:35.784Z,59.60
2023-03-19T04:14:12.305Z,57.90
2023-03-19T04:17:51.403Z,54.80
2023-03-19T04:40:17.597Z,50.60
2023-03-19T04:43:50.976Z,51.20
2023-03-19T04:47:28.315Z,51.20
2023-03-19T05:09:48.093Z,52.90
2023-03-19T05:13:21.796Z,60.90
2023-03-19T05:42:50.304Z,56.40
2023-03-19T05:46:26.092Z,50.90
2023-03-19T05:53:41.450Z,51.10
2023-03-19T05:57:24.673Z,49.20
2023-03-19T06:20:16.533Z,42.60
2023-03-19T06:23:44.265Z,49.00
2023-03-19T06:27:18.135Z,48.10
2023-03-19T06:30:51.547Z,44.40
2023-03-19T07:23:51.578Z,33.40
2023-03-19T07:27:28.991Z,30.90
2023-03-19T07:31:04.965Z,29.00
2023-03-19T07:56:50.611Z,30.20
2023-03-19T08:00:25.623Z,31.20
2023-03-19T08:04:04.917Z,30.20
2023-03-19T08:39:12.313Z,20.50
2023-03-19T08:41:41.464Z,19.20
2023-03-19T08:44:08.933Z,19.80
2023-03-19T08:46:37.846Z,19.20
2023-03-19T08:49:07.130Z,18.70
2023-03-19T08:51:35.717Z,18.70
2023-03-19T08:54:04.963Z,19.70
2023-03-19T08:56:36.651Z,19.20
2023-03-19T08:59:26.072Z,19.90
2023-03-19T09:02:32.735Z,20.30
2023-03-19T09:05:44.969Z,19.80
2023-03-19T09:18:52.947Z,20.20
2023-03-19T09:22:04.246Z,19.90
2023-03-19T09:25:00.514Z,20.50
2023-03-19T09:27:34.747Z,17.90
2023-03-19T09:30:05.909Z,18.50
2023-03-19T09:32:34.688Z,17.60
2023-03-19T09:35:03.090Z,19.80
2023-03-19T09:37:31.629Z,18.50
2023-03-19T09:39:59.118Z,18.40
2023-03-19T09:42:45.495Z,17.30
2023-03-19T09:45:30.476Z,17.60
2023-03-19T09:48:04.682Z,18.10
2023-03-19T09:50:35.184Z,17.70
2023-03-19T09:53:13.473Z,17.50
2023-03-19T09:55:47.151Z,18.80
2023-03-19T09:58:30.994Z,17.80
2023-03-19T10:01:00.539Z,17.10
2023-03-19T10:03:35.167Z,17.70
2023-03-19T10:06:22.594Z,18.40
2023-03-19T10:08:57.735Z,18.80
2023-03-19T10:11:26.694Z,18.10
2023-03-19T10:14:01.441Z,18.70
2023-03-19T10:16:31.027Z,18.60
2023-03-19T10:19:01.971Z,17.80
2023-03-19T10:21:40.102Z,17.30
2023-03-19T10:24:19.342Z,18.20
2023-03-19T10:26:48.723Z,18.30
2023-03-19T10:29:22.414Z,19.00
2023-03-19T10:31:59.748Z,18.60
2023-03-19T10:34:38.001Z,18.30
2023-03-19T10:37:14.284Z,18.80
2023-03-19T10:39:51.866Z,18.90
2023-03-19T10:42:59.900Z,18.50
2023-03-19T10:45:52.353Z,18.20
2023-03-19T10:48:57.943Z,19.00
2023-03-19T10:52:20.266Z,21.80
2023-03-19T10:55:22.810Z,19.80
2023-03-19T11:09:42.393Z,20.80
2023-03-19T11:12:59.835Z,20.10
2023-03-19T11:16:25.689Z,22.50
2023-03-19T11:19:37.048Z,21.20
2023-03-19T11:23:05.905Z,19.90
2023-03-19T11:26:20.414Z,22.80
2023-03-19T11:33:09.676Z,20.60
2023-03-19T11:39:41.911Z,25.80
2023-03-19T11:43:05.666Z,20.50
2023-03-19T11:46:14.724Z,24.70
2023-03-19T11:49:33.045Z,22.40
2023-03-19T11:53:02.827Z,26.30
2023-03-19T11:56:10.271Z,23.90
2023-03-19T11:59:28.845Z,23.30
2023-03-19T12:02:43.969Z,20.70
2023-03-19T12:06:01.321Z,21.40
2023-03-19T12:09:17.339Z,20.90
2023-03-19T12:20:44.810Z,25.90
2023-03-19T12:24:31.584Z,24.20
2023-03-19T12:28:20.002Z,25.60
2023-03-19T12:32:11.292Z,24.30
2023-03-19T12:35:50.204Z,26.80
2023-03-19T13:13:03.939Z,25.20
2023-03-19T13:20:49.174Z,27.50
2023-03-19T13:24:33.582Z,25.60
2023-03-19T13:58:58.594Z,27.90
2023-03-19T14:02:35.941Z,27.10
2023-03-19T14:06:15.096Z,27.90
2023-03-19T14:09:48.426Z,29.10
2023-03-19T14:35:42.437Z,25.30
2023-03-19T14:39:22.178Z,24.40
2023-03-19T14:42:55.929Z,24.30
2023-03-19T15:06:06.863Z,27.20
2023-03-19T15:09:41.470Z,25.90
2023-03-19T15:13:30.076Z,24.30
2023-03-19T15:17:03.036Z,27.70
2023-03-19T15:44:06.554Z,25.60
2023-03-19T15:47:45.914Z,25.90
2023-03-19T15:51:33.752Z,25.30
2023-03-19T16:25:02.894Z,59.90
2023-03-19T16:28:52.485Z,41.30
2023-03-19T16:32:36.025Z,36.10
2023-03-19T16:50:15.800Z,38.10
2023-03-19T16:53:22.494Z,41.10
2023-03-19T17:00:56.053Z,32.30
2023-03-19T17:04:40.210Z,35.60
2023-03-19T17:08:13.040Z,35.60
2023-03-19T17:11:49.359Z,32.30
2023-03-19T17:15:43.950Z,33.30
2023-03-19T17:19:27.863Z,43.30
2023-03-19T17:23:06.739Z,43.70
2023-03-19T17:26:46.155Z,36.60
2023-03-19T17:46:22.777Z,35.30
2023-03-19T17:49:59.845Z,35.20
2023-03-19T17:56:26.405Z,30.00
2023-03-19T17:59:59.369Z,31.70
2023-03-19T18:03:25.122Z,38.90
2023-03-19T18:07:13.699Z,38.60
2023-03-19T18:56:59.880Z,48.00
2023-03-19T19:00:31.555Z,41.20
2023-03-19T19:04:16.854Z,42.10
2023-03-19T19:07:57.414Z,50.10
2023-03-19T19:41:38.108Z,41.60
2023-03-19T19:45:13.508Z,44.00
2023-03-19T19:48:41.639Z,35.20
2023-03-19T20:14:28.890Z,35.70
2023-03-19T20:18:03.043Z,38.70
2023-03-19T20:21:34.338Z,33.00
2023-03-19T20:25:08.185Z,31.10
2023-03-19T20:28:51.788Z,29.00
2023-03-19T20:32:31.515Z,71.20
2023-03-19T20:54:32.785Z,35.00
2023-03-19T20:58:19.653Z,36.40
2023-03-19T21:01:51.492Z,53.40
2023-03-19T21:05:32.980Z,54.50
2023-03-19T21:35:07.040Z,78.90
2023-03-19T21:38:57.966Z,56.60
2023-03-19T21:46:39.990Z,67.40
2023-03-19T22:15:50.974Z,79.00
2023-03-19T22:19:25.326Z,75.40
2023-03-19T22:23:06.934Z,52.70
2023-03-19T22:26:43.938Z,56.50
2023-03-19T22:59:09.012Z,69.90
2023-03-19T23:02:44.644Z,53.40
2023-03-19T23:28:23.818Z,103.60
2023-03-19T23:31:57.257Z,47.00
2023-03-19T23:35:46.961Z,53.00
2023-03-19T23:39:21.748Z,49.90
2023-03-19T23:42:51.535Z,49.30
2023-03-19T23:46:29.644Z,48.10
